createdAt,value
2022-10-13T00:00:48.366Z,5.10
2022-10-13T00:03:16.010Z,5.20
2022-10-13T00:05:44.750Z,5.10
2022-10-13T00:08:12.652Z,5.10
2022-10-13T00:10:40.304Z,5.10
2022-10-13T00:13:07.375Z,5.10
2022-10-13T00:15:38.318Z,5.10
2022-10-13T00:18:05.258Z,5.10
2022-10-13T00:20:31.971Z,5.00
2022-10-13T00:22:58.627Z,5.00
2022-10-13T00:25:29.922Z,5.00
2022-10-13T00:27:56.641Z,5.00
2022-10-13T00:30:23.220Z,4.90
2022-10-13T00:32:50.005Z,5.00
2022-10-13T00:35:16.714Z,5.00
2022-10-13T00:37:43.308Z,5.00
2022-10-13T00:40:10.407Z,5.00
2022-10-13T00:42:37.000Z,4.90
2022-10-13T00:45:15.685Z,4.90
2022-10-13T00:47:45.964Z,4.90
2022-10-13T00:50:16.601Z,4.90
2022-10-13T00:52:44.280Z,4.80
2022-10-13T00:55:13.393Z,4.80
2022-10-13T00:57:42.710Z,4.80
2022-10-13T01:00:10.226Z,4.80
2022-10-13T01:02:38.309Z,4.80
2022-10-13T01:05:07.225Z,4.80
2022-10-13T01:07:35.007Z,4.80
2022-10-13T01:10:03.112Z,4.70
2022-10-13T01:12:35.524Z,4.70
2022-10-13T01:15:26.564Z,4.70
2022-10-13T01:18:10.620Z,4.70
2022-10-13T01:20:53.187Z,4.60
2022-10-13T01:23:38.282Z,4.60
2022-10-13T01:26:37.219Z,4.60
2022-10-13T01:29:19.164Z,4.60
2022-10-13T01:31:58.536Z,4.60
2022-10-13T01:34:37.350Z,4.60
2022-10-13T01:37:30.270Z,4.50
2022-10-13T01:40:11.750Z,4.50
2022-10-13T01:42:53.572Z,4.60
2022-10-13T01:45:24.106Z,4.60
2022-10-13T01:47:52.333Z,4.60
2022-10-13T01:50:20.535Z,4.60
2022-10-13T01:52:48.040Z,4.60
2022-10-13T01:55:14.924Z,4.60
2022-10-13T01:57:44.751Z,4.50
2022-10-13T02:00:19.213Z,4.50
2022-10-13T02:03:04.548Z,4.40
2022-10-13T02:05:53.708Z,4.40
2022-10-13T02:08:37.588Z,4.40
2022-10-13T02:11:14.577Z,4.40
2022-10-13T02:13:52.025Z,4.40
2022-10-13T02:16:21.542Z,4.40
2022-10-13T02:18:48.577Z,4.40
2022-10-13T02:21:16.947Z,4.40
2022-10-13T02:23:45.067Z,4.40
2022-10-13T02:26:12.760Z,4.40
2022-10-13T02:28:39.673Z,4.50
2022-10-13T02:31:08.946Z,4.50
2022-10-13T02:33:35.647Z,4.50
2022-10-13T02:36:02.371Z,4.50
2022-10-13T02:38:32.980Z,4.50
2022-10-13T02:41:01.911Z,4.60
2022-10-13T02:43:29.086Z,4.60
2022-10-13T02:45:55.735Z,4.60
2022-10-13T02:48:22.520Z,4.60
2022-10-13T02:50:51.559Z,4.70
2022-10-13T02:53:18.230Z,4.60
2022-10-13T02:55:45.981Z,4.70
2022-10-13T02:58:15.596Z,4.60
2022-10-13T03:00:44.701Z,4.60
2022-10-13T03:03:11.738Z,4.60
2022-10-13T03:05:38.609Z,4.60
2022-10-13T03:08:05.669Z,4.60
2022-10-13T03:10:32.562Z,4.60
2022-10-13T03:12:59.311Z,4.60
2022-10-13T03:15:26.104Z,4.60
2022-10-13T03:17:58.414Z,4.50
2022-10-13T03:20:25.035Z,4.60
2022-10-13T03:22:51.767Z,4.50
2022-10-13T03:25:18.448Z,4.50
2022-10-13T03:27:46.634Z,4.50
2022-10-13T03:30:13.453Z,4.40
2022-10-13T03:32:40.708Z,4.40
2022-10-13T03:35:07.892Z,4.40
2022-10-13T03:37:34.539Z,4.40
2022-10-13T03:40:01.657Z,4.30
2022-10-13T03:42:28.272Z,4.30
2022-10-13T03:44:56.485Z,4.30
2022-10-13T03:47:23.513Z,4.30
2022-10-13T03:49:50.560Z,4.20
2022-10-13T03:52:19.555Z,4.20
2022-10-13T03:54:46.952Z,4.10
2022-10-13T03:57:13.731Z,4.10
2022-10-13T03:59:43.523Z,4.10
2022-10-13T04:02:10.186Z,4.10
2022-10-13T04:04:37.845Z,4.00
2022-10-13T04:07:04.543Z,4.00
2022-10-13T04:09:31.180Z,4.00
2022-10-13T04:11:57.840Z,4.00
2022-10-13T04:14:24.418Z,4.00
2022-10-13T04:16:50.991Z,4.00
2022-10-13T04:19:17.648Z,4.00
2022-10-13T04:21:47.585Z,3.90
2022-10-13T04:24:15.237Z,3.80
2022-10-13T04:26:42.203Z,3.90
2022-10-13T04:29:10.868Z,3.90
2022-10-13T04:31:39.007Z,3.80
2022-10-13T04:34:05.913Z,3.90
2022-10-13T04:36:32.494Z,3.80
2022-10-13T04:38:59.103Z,3.80
2022-10-13T04:41:26.023Z,3.80
2022-10-13T04:43:53.949Z,3.80
2022-10-13T04:46:23.920Z,3.80
2022-10-13T04:48:51.139Z,3.80
2022-10-13T04:51:20.617Z,3.90
2022-10-13T04:53:47.648Z,3.80
2022-10-13T04:56:18.168Z,3.90
2022-10-13T04:58:48.453Z,3.90
2022-10-13T05:01:28.687Z,3.90
2022-10-13T05:04:01.562Z,3.90
2022-10-13T05:06:31.595Z,3.90
2022-10-13T05:08:58.822Z,3.90
2022-10-13T05:11:50.749Z,3.90
2022-10-13T05:14:19.693Z,4.00
2022-10-13T05:16:46.276Z,3.90
2022-10-13T05:19:12.942Z,3.90
2022-10-13T05:21:39.713Z,3.90
2022-10-13T05:24:06.782Z,4.00
2022-10-13T05:26:35.451Z,3.90
2022-10-13T05:29:02.836Z,3.90
2022-10-13T05:31:32.008Z,3.90
2022-10-13T05:33:59.304Z,3.90
2022-10-13T05:36:32.447Z,3.80
2022-10-13T05:39:01.531Z,3.90
2022-10-13T05:41:28.807Z,3.90
2022-10-13T05:43:59.395Z,4.00
2022-10-13T05:46:26.322Z,4.00
2022-10-13T05:48:53.499Z,4.10
2022-10-13T05:51:26.794Z,4.20
2022-10-13T05:53:58.512Z,4.30
2022-10-13T05:56:29.583Z,4.40
2022-10-13T05:59:00.647Z,4.40
2022-10-13T06:01:31.373Z,4.50
2022-10-13T06:04:03.146Z,4.60
2022-10-13T06:06:31.596Z,4.70
2022-10-13T06:08:59.947Z,4.80
2022-10-13T06:11:26.881Z,4.90
2022-10-13T06:13:53.534Z,5.00
2022-10-13T06:16:20.106Z,5.10
2022-10-13T06:18:47.669Z,5.20
2022-10-13T06:21:14.355Z,5.30
2022-10-13T06:23:40.909Z,5.40
2022-10-13T06:26:08.774Z,5.50
2022-10-13T06:28:36.087Z,5.60
2022-10-13T06:31:05.415Z,5.60
2022-10-13T06:33:32.530Z,5.70
2022-10-13T06:36:06.398Z,5.80
2022-10-13T06:38:33.485Z,5.90
2022-10-13T06:41:05.294Z,5.90
2022-10-13T06:43:39.723Z,6.00
2022-10-13T06:46:07.600Z,6.00
2022-10-13T06:48:34.480Z,6.10
2022-10-13T06:51:03.064Z,6.20
2022-10-13T06:53:30.020Z,6.30
2022-10-13T06:56:01.339Z,6.30
2022-10-13T06:58:28.329Z,6.40
2022-10-13T07:00:55.512Z,6.40
2022-10-13T07:03:23.772Z,6.50
2022-10-13T07:05:50.694Z,6.50
2022-10-13T07:08:17.334Z,6.60
2022-10-13T07:10:43.968Z,6.60
2022-10-13T07:13:10.604Z,6.70
2022-10-13T07:15:38.953Z,6.70
2022-10-13T07:18:05.881Z,6.80
2022-10-13T07:20:32.612Z,6.90
2022-10-13T07:22:59.473Z,6.90
2022-10-13T07:25:26.101Z,7.00
2022-10-13T07:27:53.461Z,7.10
2022-10-13T07:30:20.128Z,7.20
2022-10-13T07:32:46.883Z,7.20
2022-10-13T07:35:13.581Z,7.30
2022-10-13T07:37:40.590Z,7.40
2022-10-13T07:40:08.429Z,7.50
2022-10-13T07:42:35.117Z,7.50
2022-10-13T07:45:01.722Z,7.60
2022-10-13T07:47:29.299Z,7.60
2022-10-13T07:49:55.897Z,7.70
2022-10-13T07:52:23.176Z,7.70
2022-10-13T07:54:50.999Z,7.80
2022-10-13T07:57:17.884Z,7.80
2022-10-13T07:59:47.427Z,7.80
2022-10-13T08:02:14.243Z,7.90
2022-10-13T08:04:42.058Z,8.10
2022-10-13T08:07:11.376Z,8.20
2022-10-13T08:09:38.835Z,8.40
2022-10-13T08:12:05.604Z,8.60
2022-10-13T08:14:32.676Z,8.80
2022-10-13T08:16:59.537Z,9.00
2022-10-13T08:19:26.560Z,9.20
2022-10-13T08:21:58.131Z,9.50
2022-10-13T08:24:25.197Z,9.70
2022-10-13T08:26:51.843Z,9.90
2022-10-13T08:29:23.579Z,10.20
2022-10-13T08:31:54.617Z,10.50
2022-10-13T08:34:22.797Z,10.70
2022-10-13T08:36:52.994Z,11.00
2022-10-13T08:39:21.007Z,11.20
2022-10-13T08:41:48.042Z,11.50
2022-10-13T08:47:26.784Z,11.80
2022-10-13T08:49:59.964Z,12.10
2022-10-13T08:52:30.306Z,12.30
2022-10-13T08:54:58.416Z,12.50
2022-10-13T08:57:25.101Z,12.60
2022-10-13T08:59:52.559Z,12.80
2022-10-13T09:02:29.249Z,13.00
2022-10-13T09:04:59.343Z,13.20
2022-10-13T09:07:31.104Z,13.40
2022-10-13T09:09:57.824Z,13.50
2022-10-13T09:12:25.377Z,13.40
2022-10-13T09:15:10.556Z,13.50
2022-10-13T09:17:39.775Z,13.70
2022-10-13T09:20:22.694Z,13.80
2022-10-13T09:23:07.794Z,13.80
2022-10-13T09:25:49.849Z,13.80
2022-10-13T09:28:27.301Z,13.80
2022-10-13T09:31:14.139Z,13.80
2022-10-13T09:33:41.284Z,13.80
2022-10-13T09:36:13.354Z,13.80
2022-10-13T09:38:42.681Z,13.90
2022-10-13T09:41:09.261Z,13.90
2022-10-13T09:43:48.045Z,14.00
2022-10-13T09:46:51.830Z,14.10
2022-10-13T09:49:34.515Z,14.20
2022-10-13T09:52:04.952Z,14.20
2022-10-13T09:54:40.725Z,14.20
2022-10-13T09:57:16.514Z,14.30
2022-10-13T09:59:58.828Z,14.40
2022-10-13T10:03:00.674Z,14.40
2022-10-13T10:05:50.593Z,14.40
2022-10-13T10:08:28.819Z,14.40
2022-10-13T10:11:03.507Z,14.40
2022-10-13T10:13:30.332Z,14.30
2022-10-13T10:16:19.717Z,14.30
2022-10-13T10:18:57.746Z,14.30
2022-10-13T10:21:36.257Z,14.10
2022-10-13T10:24:25.231Z,14.10
2022-10-13T10:26:55.065Z,14.10
2022-10-13T10:29:44.455Z,14.10
2022-10-13T10:32:21.586Z,14.10
2022-10-13T10:35:10.978Z,14.20
2022-10-13T10:37:53.419Z,14.30
2022-10-13T10:40:32.920Z,14.30
2022-10-13T10:43:36.562Z,14.30
2022-10-13T10:46:12.829Z,14.30
2022-10-13T10:48:40.630Z,14.30
2022-10-13T10:51:09.864Z,14.40
2022-10-13T10:53:55.579Z,14.50
2022-10-13T10:56:33.941Z,14.50
2022-10-13T10:59:18.561Z,14.60
2022-10-13T11:01:48.028Z,14.50
2022-10-13T11:04:47.433Z,14.50
2022-10-13T11:07:22.866Z,14.50
2022-10-13T11:09:50.462Z,14.60
2022-10-13T11:12:20.505Z,14.70
2022-10-13T11:15:11.374Z,14.80
2022-10-13T11:17:39.449Z,14.80
2022-10-13T11:20:48.545Z,14.80
2022-10-13T11:23:15.221Z,14.90
2022-10-13T11:25:44.541Z,15.20
2022-10-13T11:28:23.492Z,15.50
2022-10-13T11:30:52.284Z,15.70
2022-10-13T11:33:35.889Z,15.80
2022-10-13T11:36:30.757Z,15.70
2022-10-13T11:39:10.469Z,15.70
2022-10-13T11:41:49.118Z,15.70
2022-10-13T11:44:53.114Z,15.80
2022-10-13T11:47:58.435Z,15.90
2022-10-13T11:50:40.430Z,16.00
2022-10-13T11:53:24.328Z,16.00
2022-10-13T11:55:56.326Z,16.10
2022-10-13T11:58:24.577Z,16.30
2022-10-13T12:01:01.388Z,16.30
2022-10-13T12:03:29.855Z,16.40
2022-10-13T12:06:26.382Z,16.60
2022-10-13T12:08:53.115Z,16.80
2022-10-13T12:11:29.158Z,17.00
2022-10-13T12:13:56.660Z,17.20
2022-10-13T12:16:23.739Z,17.20
2022-10-13T12:18:50.650Z,17.30
2022-10-13T12:21:20.937Z,17.50
2022-10-13T12:23:49.627Z,17.80
2022-10-13T12:26:25.277Z,18.20
2022-10-13T12:28:57.793Z,18.70
2022-10-13T12:31:46.303Z,18.70
2022-10-13T12:34:23.897Z,18.80
2022-10-13T12:37:11.616Z,18.70
2022-10-13T12:39:39.161Z,18.50
2022-10-13T12:42:10.235Z,18.40
2022-10-13T12:44:37.427Z,18.30
2022-10-13T12:47:04.119Z,18.10
2022-10-13T12:49:35.657Z,18.00
2022-10-13T12:52:15.565Z,17.90
2022-10-13T12:54:55.492Z,17.80
2022-10-13T12:57:35.812Z,17.60
2022-10-13T13:00:20.407Z,17.40
2022-10-13T13:02:58.907Z,17.30
2022-10-13T13:06:06.660Z,17.10
2022-10-13T13:08:33.261Z,17.00
2022-10-13T13:11:01.889Z,17.00
2022-10-13T13:13:29.726Z,17.00
2022-10-13T13:16:23.255Z,17.00
2022-10-13T13:18:50.866Z,17.00
2022-10-13T13:21:19.355Z,16.90
2022-10-13T13:23:51.221Z,16.80
2022-10-13T13:26:22.845Z,16.80
2022-10-13T13:28:56.968Z,16.90
2022-10-13T13:31:24.738Z,16.90
2022-10-13T13:33:51.620Z,16.80
2022-10-13T13:36:23.914Z,16.80
2022-10-13T13:38:51.073Z,16.70
2022-10-13T13:41:17.865Z,16.70
2022-10-13T13:43:45.098Z,16.70
2022-10-13T13:46:21.057Z,16.60
2022-10-13T13:48:47.674Z,16.70
2022-10-13T13:51:14.863Z,16.60
2022-10-13T13:53:41.646Z,16.50
2022-10-13T13:56:16.637Z,16.50
2022-10-13T13:58:43.570Z,16.40
2022-10-13T14:01:11.185Z,16.30
2022-10-13T14:03:38.185Z,16.20
2022-10-13T14:06:05.206Z,16.10
2022-10-13T14:08:32.878Z,16.10
2022-10-13T14:10:59.827Z,16.10
2022-10-13T14:13:26.497Z,16.20
2022-10-13T14:15:59.731Z,16.10
2022-10-13T14:18:26.931Z,16.00
2022-10-13T14:20:53.660Z,16.00
2022-10-13T14:23:20.492Z,16.00
2022-10-13T14:25:47.284Z,16.00
2022-10-13T14:28:18.027Z,15.90
2022-10-13T14:30:45.212Z,16.00
2022-10-13T14:33:11.893Z,15.90
2022-10-13T14:35:38.484Z,15.90
2022-10-13T14:38:05.190Z,16.00
2022-10-13T14:40:31.756Z,16.20
2022-10-13T14:42:58.322Z,16.50
2022-10-13T14:45:25.029Z,16.80
2022-10-13T14:47:53.566Z,17.10
2022-10-13T14:50:20.502Z,17.30
2022-10-13T14:52:47.099Z,17.30
2022-10-13T14:55:13.715Z,17.20
2022-10-13T14:57:40.394Z,17.00
2022-10-13T15:00:07.529Z,16.80
2022-10-13T15:02:34.212Z,16.60
2022-10-13T15:05:01.105Z,16.40
2022-10-13T15:07:27.702Z,16.30
2022-10-13T15:10:05.020Z,16.10
2022-10-13T15:12:32.716Z,16.00
2022-10-13T15:14:59.277Z,15.80
2022-10-13T15:17:25.912Z,15.70
2022-10-13T15:19:52.531Z,15.60
2022-10-13T15:22:19.469Z,15.40
2022-10-13T15:24:46.558Z,15.20
2022-10-13T15:27:13.148Z,15.10
2022-10-13T15:29:39.731Z,14.90
2022-10-13T15:32:17.903Z,14.80
2022-10-13T15:34:45.360Z,14.70
2022-10-13T15:37:12.412Z,14.60
2022-10-13T15:39:39.040Z,14.50
2022-10-13T15:42:05.644Z,14.40
2022-10-13T15:44:50.977Z,14.20
2022-10-13T15:47:19.173Z,14.10
2022-10-13T15:49:45.861Z,13.90
2022-10-13T15:52:12.533Z,13.80
2022-10-13T15:54:39.228Z,13.70
2022-10-13T15:57:05.864Z,13.60
2022-10-13T15:59:32.473Z,13.40
2022-10-13T16:01:59.153Z,13.30
2022-10-13T16:04:25.880Z,13.20
2022-10-13T16:06:52.429Z,13.10
2022-10-13T16:09:19.056Z,13.00
2022-10-13T16:11:45.677Z,12.90
2022-10-13T16:14:12.381Z,12.90
2022-10-13T16:16:39.232Z,12.80
2022-10-13T16:19:05.946Z,12.70
2022-10-13T16:21:32.564Z,12.60
2022-10-13T16:23:59.484Z,12.60
2022-10-13T16:26:26.208Z,12.60
2022-10-13T16:28:56.721Z,12.50
2022-10-13T16:31:24.188Z,12.50
2022-10-13T16:33:50.742Z,12.50
2022-10-13T16:36:19.572Z,12.50
2022-10-13T16:38:47.556Z,12.40
2022-10-13T16:41:16.996Z,12.40
2022-10-13T16:43:44.975Z,12.40
2022-10-13T16:46:14.245Z,12.30
2022-10-13T16:48:42.289Z,12.30
2022-10-13T16:51:15.140Z,12.30
2022-10-13T16:53:42.121Z,12.20
2022-10-13T16:56:09.528Z,12.10
2022-10-13T16:58:36.206Z,12.10
2022-10-13T17:01:08.761Z,12.00
2022-10-13T17:03:36.737Z,12.00
2022-10-13T17:06:04.192Z,12.00
2022-10-13T17:08:31.717Z,12.00
2022-10-13T17:11:01.706Z,12.00
2022-10-13T17:13:28.513Z,12.00
2022-10-13T17:15:57.030Z,11.90
2022-10-13T17:18:25.104Z,11.90
2022-10-13T17:20:56.853Z,11.90
2022-10-13T17:23:24.725Z,11.90
2022-10-13T17:25:52.416Z,11.80
2022-10-13T17:28:19.546Z,11.80
2022-10-13T17:30:57.515Z,11.70
2022-10-13T17:33:24.644Z,11.70
2022-10-13T17:35:51.445Z,11.70
2022-10-13T17:38:18.067Z,11.70
2022-10-13T17:40:44.661Z,11.60
2022-10-13T17:43:11.377Z,11.60
2022-10-13T17:45:37.931Z,11.60
2022-10-13T17:48:04.670Z,11.50
2022-10-13T17:50:35.184Z,11.50
2022-10-13T17:53:01.832Z,11.40
2022-10-13T17:55:29.768Z,11.30
2022-10-13T17:57:56.761Z,11.30
2022-10-13T18:00:23.352Z,11.20
2022-10-13T18:02:50.269Z,11.20
2022-10-13T18:05:17.369Z,11.10
2022-10-13T18:07:43.959Z,11.10
2022-10-13T18:10:11.404Z,11.10
2022-10-13T18:12:38.056Z,11.10
2022-10-13T18:15:05.041Z,11.00
2022-10-13T18:17:31.726Z,11.00
2022-10-13T18:19:58.561Z,11.00
2022-10-13T18:22:25.359Z,10.90
2022-10-13T18:24:56.684Z,10.90
2022-10-13T18:27:24.013Z,10.80
2022-10-13T18:29:50.689Z,10.80
2022-10-13T18:32:17.331Z,10.70
2022-10-13T18:34:43.882Z,10.70
2022-10-13T18:37:10.457Z,10.60
2022-10-13T18:39:37.071Z,10.60
2022-10-13T18:42:03.762Z,10.50
2022-10-13T18:44:30.353Z,10.50
2022-10-13T18:46:57.113Z,10.40
2022-10-13T18:49:30.849Z,10.40
2022-10-13T18:51:58.584Z,10.30
2022-10-13T18:54:29.293Z,10.30
2022-10-13T18:56:56.034Z,10.20
2022-10-13T18:59:23.087Z,10.20
2022-10-13T19:01:50.093Z,10.10
2022-10-13T19:04:16.960Z,10.10
2022-10-13T19:06:44.710Z,10.00
2022-10-13T19:09:14.115Z,10.00
2022-10-13T19:11:41.169Z,9.90
2022-10-13T19:14:11.257Z,9.90
2022-10-13T19:16:40.446Z,9.90
2022-10-13T19:19:10.587Z,9.80
2022-10-13T19:21:38.249Z,9.90
2022-10-13T19:24:05.394Z,9.80
2022-10-13T19:26:33.734Z,9.80
2022-10-13T19:29:03.650Z,9.70
2022-10-13T19:31:31.998Z,9.70
2022-10-13T19:33:59.553Z,9.70
2022-10-13T19:36:39.156Z,9.60
2022-10-13T19:39:11.693Z,9.60
2022-10-13T19:41:38.681Z,9.50
2022-10-13T19:44:05.283Z,9.40
2022-10-13T19:46:32.652Z,9.40
2022-10-13T19:48:59.447Z,9.30
2022-10-13T19:51:26.019Z,9.30
2022-10-13T19:53:52.632Z,9.30
2022-10-13T19:56:22.917Z,9.20
2022-10-13T19:58:49.578Z,9.10
2022-10-13T20:01:16.344Z,9.10
2022-10-13T20:03:42.996Z,9.00
2022-10-13T20:06:10.772Z,9.00
2022-10-13T20:08:37.400Z,9.00
2022-10-13T20:11:12.631Z,8.90
2022-10-13T20:13:39.228Z,8.90
2022-10-13T20:16:13.422Z,8.90
2022-10-13T20:18:40.531Z,8.90
2022-10-13T20:21:09.694Z,8.80
2022-10-13T20:23:37.106Z,8.80
2022-10-13T20:26:08.063Z,8.80
2022-10-13T20:28:40.564Z,8.70
2022-10-13T20:31:10.403Z,8.70
2022-10-13T20:33:37.205Z,8.70
2022-10-13T20:36:07.577Z,8.70
2022-10-13T20:38:37.937Z,8.60
2022-10-13T20:41:08.687Z,8.60
2022-10-13T20:43:36.864Z,8.60
2022-10-13T20:46:05.828Z,8.60
2022-10-13T20:48:51.454Z,8.60
2022-10-13T20:51:23.402Z,8.60
2022-10-13T20:53:50.509Z,8.60
2022-10-13T20:56:22.754Z,8.60
2022-10-13T20:58:50.330Z,8.60
2022-10-13T21:01:18.135Z,8.60
2022-10-13T21:03:44.940Z,8.60
2022-10-13T21:06:13.705Z,8.60
2022-10-13T21:08:40.772Z,8.50
2022-10-13T21:11:10.758Z,8.50
2022-10-13T21:13:40.478Z,8.50
2022-10-13T21:16:09.251Z,8.50
2022-10-13T21:18:36.524Z,8.40
2022-10-13T21:21:08.468Z,8.40
2022-10-13T21:23:35.585Z,8.40
2022-10-13T21:26:03.860Z,8.40
2022-10-13T21:28:31.527Z,8.30
2022-10-13T21:31:03.253Z,8.30
2022-10-13T21:33:30.110Z,8.20
2022-10-13T21:35:57.149Z,8.20
2022-10-13T21:38:23.757Z,8.10
2022-10-13T21:40:53.919Z,8.10
2022-10-13T21:43:20.717Z,8.10
2022-10-13T21:45:47.374Z,8.00
2022-10-13T21:48:14.040Z,8.00
2022-10-13T21:50:40.778Z,8.00
2022-10-13T21:53:07.473Z,7.90
2022-10-13T21:55:34.033Z,7.90
2022-10-13T21:58:05.348Z,7.90
2022-10-13T22:00:33.769Z,7.90
2022-10-13T22:03:00.343Z,7.90
2022-10-13T22:05:26.929Z,7.90
2022-10-13T22:07:53.579Z,8.00
2022-10-13T22:10:20.285Z,7.90
2022-10-13T22:12:46.905Z,8.00
2022-10-13T22:15:13.495Z,8.00
2022-10-13T22:17:40.160Z,8.00
2022-10-13T22:20:07.066Z,8.00
2022-10-13T22:22:33.672Z,8.00
2022-10-13T22:25:00.443Z,8.00
2022-10-13T22:27:27.024Z,8.00
2022-10-13T22:29:53.885Z,8.00
2022-10-13T22:32:20.465Z,8.00
2022-10-13T22:34:47.021Z,8.00
2022-10-13T22:37:13.787Z,8.00
2022-10-13T22:39:40.453Z,8.00
2022-10-13T22:42:07.084Z,7.90
2022-10-13T22:44:33.882Z,8.00
2022-10-13T22:47:00.475Z,7.90
2022-10-13T22:49:27.146Z,8.00
2022-10-13T22:51:53.798Z,7.90
2022-10-13T22:54:20.400Z,7.90
2022-10-13T22:56:47.118Z,7.90
2022-10-13T22:59:14.253Z,7.80
2022-10-13T23:01:41.125Z,7.80
2022-10-13T23:04:07.754Z,7.80
2022-10-13T23:06:35.394Z,7.70
2022-10-13T23:09:04.763Z,7.70
2022-10-13T23:11:31.576Z,7.70
2022-10-13T23:13:58.209Z,7.70
2022-10-13T23:16:25.828Z,7.60
2022-10-13T23:18:53.174Z,7.60
2022-10-13T23:21:22.249Z,7.60
2022-10-13T23:23:54.901Z,7.60
2022-10-13T23:26:21.504Z,7.60
2022-10-13T23:28:48.182Z,7.50
2022-10-13T23:31:17.343Z,7.60
2022-10-13T23:33:44.572Z,7.50
2022-10-13T23:36:25.708Z,7.50
2022-10-13T23:38:57.061Z,7.40
2022-10-13T23:41:24.293Z,7.40
2022-10-13T23:43:50.939Z,7.30
2022-10-13T23:46:17.844Z,7.30
2022-10-13T23:48:44.556Z,7.30
2022-10-13T23:51:14.812Z,7.20
2022-10-13T23:53:41.794Z,7.20
2022-10-13T23:56:09.683Z,7.20
2022-10-13T23:58:37.612Z,7.10
